Time;durP1;ratioP1;P1;durP2;ratioP2;P2;SDS_P1;SDS_P2;PMS_P1;PMS_P2;Temp;Humidity;BMP_temperature;BMP_pressure;BME280_temperature;BME280_humidity;BME280_pressure;Samples;Min_cycle;Max_cycle;Signal;HPM_P1;HPM_P2
2022/10/15 00:01:49;;;;;;;38.25;22.75;;;11.90;77.20;;;;;;5095487;28;20572;-13
2022/10/15 00:04:15;;;;;;;44.65;23.95;;;11.90;77.70;;;;;;5095427;28;20032;-13
2022/10/15 00:06:41;;;;;;;41.83;23.48;;;11.90;77.50;;;;;;5095314;28;20026;-13
2022/10/15 00:09:06;;;;;;;50.67;28.15;;;11.90;77.60;;;;;;5095142;28;20032;-13
2022/10/15 00:11:33;;;;;;;42.20;23.33;;;11.90;77.80;;;;;;5093683;28;20049;-13
2022/10/15 00:14:00;;;;;;;42.67;23.55;;;11.90;77.80;;;;;;5095515;28;20028;-13
2022/10/15 00:16:28;;;;;;;38.47;21.10;;;11.90;77.80;;;;;;5095756;28;20032;-13
2022/10/15 00:18:58;;;;;;;39.42;22.33;;;11.90;77.90;;;;;;5094954;28;20024;-13
2022/10/15 00:21:25;;;;;;;45.58;24.48;;;11.90;78.20;;;;;;5095645;28;20012;-13
2022/10/15 00:23:51;;;;;;;52.20;28.77;;;11.90;78.40;;;;;;5094464;28;20052;-13
2022/10/15 00:26:23;;;;;;;49.83;27.80;;;11.90;78.30;;;;;;5095216;28;20027;-13
2022/10/15 00:28:51;;;;;;;39.60;21.98;;;11.90;78.60;;;;;;5095668;28;20111;-13
2022/10/15 00:31:19;;;;;;;42.22;22.67;;;11.90;78.40;;;;;;5095178;28;20051;-13
2022/10/15 00:33:47;;;;;;;44.28;23.88;;;11.80;78.30;;;;;;5094745;28;20039;-13
2022/10/15 00:36:16;;;;;;;33.38;20.02;;;11.80;78.90;;;;;;5095330;28;20023;-14
2022/10/15 00:38:42;;;;;;;32.15;18.23;;;11.80;78.40;;;;;;5094648;28;20059;-13
2022/10/15 00:41:13;;;;;;;28.77;16.02;;;11.90;78.50;;;;;;5094610;28;20012;-13
2022/10/15 00:43:52;;;;;;;36.33;21.00;;;11.90;78.30;;;;;;5094654;28;20396;-13
2022/10/15 00:46:25;;;;;;;30.50;18.27;;;11.90;78.20;;;;;;5094879;28;20050;-14
2022/10/15 00:48:59;;;;;;;34.17;20.00;;;11.90;78.10;;;;;;5094465;28;20028;-14
2022/10/15 00:51:31;;;;;;;39.70;22.52;;;11.90;78.20;;;;;;5095248;28;20085;-14
2022/10/15 00:53:57;;;;;;;51.70;27.75;;;11.90;78.50;;;;;;5094538;28;20062;-13
2022/10/15 00:56:25;;;;;;;33.22;19.38;;;11.90;78.80;;;;;;5093837;28;20028;-14
2022/10/15 00:58:53;;;;;;;31.73;18.70;;;11.90;78.60;;;;;;5094902;28;20066;-13
2022/10/15 01:01:20;;;;;;;33.35;19.27;;;12.00;78.20;;;;;;5094243;28;20024;-14
2022/10/15 01:03:46;;;;;;;37.60;21.70;;;12.00;78.10;;;;;;5093007;28;20421;-13
2022/10/15 01:06:12;;;;;;;47.45;24.50;;;12.00;78.50;;;;;;5094572;28;20025;-13
2022/10/15 01:08:38;;;;;;;46.05;24.77;;;12.10;78.50;;;;;;5092950;28;20024;-14
2022/10/15 01:11:10;;;;;;;49.58;26.65;;;12.00;78.30;;;;;;5093721;28;20044;-13
2022/10/15 01:13:56;;;;;;;41.85;22.80;;;12.00;78.40;;;;;;5094130;28;20059;-14
2022/10/15 01:16:45;;;;;;;39.90;22.10;;;12.00;78.40;;;;;;5094209;28;20020;-14
2022/10/15 01:19:48;;;;;;;32.55;19.38;;;12.00;78.60;;;;;;5094144;28;20085;-13
2022/10/15 01:22:32;;;;;;;53.42;28.65;;;12.00;78.50;;;;;;5093913;28;20025;-13
2022/10/15 01:25:30;;;;;;;38.30;22.23;;;12.10;78.50;;;;;;5094024;28;20024;-14
2022/10/15 01:28:20;;;;;;;42.15;22.85;;;12.10;78.50;;;;;;5062265;28;20032;-13
2022/10/15 01:30:58;;;;;;;37.47;20.85;;;12.10;78.50;;;;;;5094030;28;20040;-13
2022/10/15 01:33:44;;;;;;;34.28;18.88;;;12.10;78.60;;;;;;5094019;28;20058;-13
2022/10/15 01:36:36;;;;;;;31.48;18.38;;;12.10;78.40;;;;;;5093644;28;20028;-13
2022/10/15 01:39:11;;;;;;;33.58;19.50;;;12.20;78.30;;;;;;5093743;28;20028;-14
2022/10/15 01:41:42;;;;;;;41.28;23.27;;;12.20;78.20;;;;;;5094533;28;20035;-13
2022/10/15 01:44:11;;;;;;;36.05;21.25;;;12.10;78.50;;;;;;5093967;28;20016;-14
2022/10/15 01:47:03;;;;;;;37.83;21.80;;;12.20;78.60;;;;;;5093545;28;20024;-13
2022/10/15 01:49:33;;;;;;;33.40;19.63;;;12.10;78.50;;;;;;5093438;28;20032;-14
2022/10/15 01:52:05;;;;;;;35.25;19.60;;;12.10;78.50;;;;;;5093350;28;20123;-13
2022/10/15 01:54:32;;;;;;;44.72;23.02;;;12.10;78.50;;;;;;5093376;28;20028;-13
2022/10/15 01:56:59;;;;;;;41.13;21.00;;;12.10;78.50;;;;;;5093782;28;20020;-14
2022/10/15 01:59:29;;;;;;;34.42;19.73;;;12.20;78.70;;;;;;5093357;28;20032;-14
2022/10/15 02:01:55;;;;;;;38.20;21.00;;;12.20;78.60;;;;;;5092443;28;20024;-12
2022/10/15 02:04:24;;;;;;;45.53;25.58;;;12.20;78.80;;;;;;5092113;28;20032;-12
2022/10/15 02:07:10;;;;;;;39.50;21.92;;;12.20;78.60;;;;;;5091741;28;20093;-12
2022/10/15 02:09:50;;;;;;;34.17;19.65;;;12.20;78.60;;;;;;5093548;28;20024;-14
2022/10/15 02:12:51;;;;;;;36.80;19.15;;;12.20;78.70;;;;;;5093308;28;20048;-12
2022/10/15 02:15:43;;;;;;;37.17;21.02;;;12.20;78.70;;;;;;5093593;28;20012;-13
2022/10/15 02:18:32;;;;;;;40.22;21.90;;;12.20;78.70;;;;;;5093102;28;20032;-13
2022/10/15 02:21:24;;;;;;;33.42;20.17;;;12.30;78.70;;;;;;5093032;28;20025;-13
2022/10/15 02:24:09;;;;;;;46.05;24.25;;;12.30;78.80;;;;;;5091928;28;20409;-13
2022/10/15 02:26:36;;;;;;;50.22;26.75;;;12.40;78.60;;;;;;5093433;28;20104;-14
2022/10/15 02:29:05;;;;;;;44.22;24.58;;;12.40;79.00;;;;;;5092849;28;20028;-14
2022/10/15 02:31:34;;;;;;;46.22;25.60;;;12.40;78.80;;;;;;5092933;28;20032;-13
2022/10/15 02:34:06;;;;;;;42.85;25.60;;;12.40;78.80;;;;;;5093247;28;20558;-13
2022/10/15 02:36:32;;;;;;;47.20;23.90;;;12.40;78.80;;;;;;5093368;28;20016;-13
2022/10/15 02:39:02;;;;;;;38.75;20.85;;;12.40;78.90;;;;;;5093050;28;20039;-13
2022/10/15 02:41:29;;;;;;;47.70;26.48;;;12.40;78.90;;;;;;5092972;28;20552;-12
2022/10/15 02:43:55;;;;;;;38.47;21.33;;;12.40;79.20;;;;;;5092936;28;20483;-13
2022/10/15 02:46:21;;;;;;;32.08;19.30;;;12.40;79.70;;;;;;5092933;28;20039;-13
2022/10/15 02:48:47;;;;;;;31.42;18.90;;;12.50;79.30;;;;;;5092859;28;20032;-15
2022/10/15 02:51:12;;;;;;;31.13;17.88;;;12.50;79.20;;;;;;5092738;28;20448;-13
2022/10/15 02:53:38;;;;;;;27.92;17.92;;;12.50;79.00;;;;;;5092863;28;20102;-12
2022/10/15 02:56:04;;;;;;;32.70;19.52;;;12.50;78.60;;;;;;5093364;28;20027;-13
2022/10/15 02:58:30;;;;;;;39.42;22.58;;;12.60;78.70;;;;;;5093229;28;20048;-12
2022/10/15 03:00:57;;;;;;;38.60;21.85;;;12.60;78.90;;;;;;5092530;28;20024;-13
2022/10/15 03:03:22;;;;;;;35.17;20.08;;;12.60;78.80;;;;;;5092744;28;20020;-12
2022/10/15 03:05:48;;;;;;;43.70;25.00;;;12.60;78.80;;;;;;5092979;28;20028;-13
2022/10/15 03:08:14;;;;;;;33.63;19.48;;;12.60;78.80;;;;;;5093243;28;20441;-12
2022/10/15 03:10:40;;;;;;;37.80;20.73;;;12.60;79.00;;;;;;5092781;28;20126;-14
2022/10/15 03:13:06;;;;;;;33.10;18.98;;;12.60;79.10;;;;;;5092516;28;20133;-13
2022/10/15 03:15:32;;;;;;;36.67;20.58;;;12.60;79.10;;;;;;5092952;28;20024;-12
2022/10/15 03:17:58;;;;;;;34.05;19.45;;;12.60;79.50;;;;;;5093759;28;20074;-13
2022/10/15 03:20:24;;;;;;;33.47;19.77;;;12.60;79.40;;;;;;5096598;28;20405;-13
2022/10/15 03:22:50;;;;;;;35.40;20.15;;;12.60;79.60;;;;;;5096258;28;20017;-13
2022/10/15 03:25:16;;;;;;;30.08;17.85;;;12.60;79.40;;;;;;5096167;28;20024;-13
2022/10/15 03:27:42;;;;;;;30.65;17.95;;;12.70;79.10;;;;;;5096438;28;20069;-13
2022/10/15 03:30:09;;;;;;;31.10;18.48;;;12.60;79.20;;;;;;5096606;28;20054;-13
2022/10/15 03:32:35;;;;;;;31.85;17.98;;;12.70;79.10;;;;;;5096337;28;20099;-13
2022/10/15 03:35:01;;;;;;;28.40;17.08;;;12.70;79.00;;;;;;5095746;28;20111;-13
2022/10/15 03:37:27;;;;;;;29.83;18.27;;;12.80;79.00;;;;;;5095914;28;20035;-13
2022/10/15 03:39:53;;;;;;;31.67;19.05;;;12.80;79.00;;;;;;5096364;28;20024;-13
2022/10/15 03:42:19;;;;;;;28.42;18.13;;;12.80;79.10;;;;;;5096156;28;20020;-13
2022/10/15 03:44:45;;;;;;;28.80;17.23;;;12.80;78.90;;;;;;5095993;28;20391;-13
2022/10/15 03:47:10;;;;;;;29.50;18.05;;;12.80;78.90;;;;;;5095552;28;20028;-13
2022/10/15 03:49:36;;;;;;;29.27;17.60;;;12.90;78.80;;;;;;5095601;28;20027;-13
2022/10/15 03:52:02;;;;;;;27.83;17.42;;;12.90;78.70;;;;;;5094311;28;20036;-12
2022/10/15 03:54:28;;;;;;;26.88;16.15;;;12.90;78.70;;;;;;5095547;28;20036;-13
2022/10/15 03:56:55;;;;;;;29.77;18.10;;;12.90;78.50;;;;;;5095366;28;20399;-13
2022/10/15 03:59:21;;;;;;;28.40;17.50;;;12.90;78.60;;;;;;5094338;28;20051;-12
2022/10/15 04:01:47;;;;;;;29.15;17.88;;;12.90;78.80;;;;;;5095779;28;20078;-12
2022/10/15 04:04:13;;;;;;;29.65;17.83;;;12.90;78.80;;;;;;5095453;28;20028;-13
2022/10/15 04:06:39;;;;;;;34.25;20.02;;;12.90;78.80;;;;;;5095540;28;20028;-12
2022/10/15 04:09:05;;;;;;;36.03;20.33;;;12.90;78.90;;;;;;5093957;28;20062;-12
2022/10/15 04:11:31;;;;;;;30.90;18.55;;;12.80;79.00;;;;;;5094996;28;20051;-12
2022/10/15 04:13:57;;;;;;;27.77;17.80;;;12.80;79.00;;;;;;5095909;28;20020;-14
2022/10/15 04:16:23;;;;;;;27.27;16.55;;;12.80;79.00;;;;;;5095591;28;20081;-13
2022/10/15 04:18:49;;;;;;;32.17;18.35;;;12.80;78.90;;;;;;5095000;28;20028;-13
2022/10/15 04:21:15;;;;;;;26.33;16.20;;;12.80;79.00;;;;;;5095763;28;20016;-13
2022/10/15 04:23:41;;;;;;;26.77;17.15;;;12.80;79.10;;;;;;5095135;28;20031;-13
2022/10/15 04:26:07;;;;;;;32.60;18.67;;;12.80;79.20;;;;;;5094992;28;20032;-12
2022/10/15 04:28:33;;;;;;;35.03;18.98;;;12.80;79.20;;;;;;5095593;28;20095;-12
2022/10/15 04:31:00;;;;;;;28.45;18.17;;;12.80;79.20;;;;;;5094645;28;20471;-13
2022/10/15 04:33:27;;;;;;;28.13;16.77;;;12.80;79.30;;;;;;5095106;28;20050;-13
2022/10/15 04:36:10;;;;;;;29.27;16.65;;;12.80;79.30;;;;;;5094866;28;20024;-13
2022/10/15 04:38:36;;;;;;;25.42;15.48;;;12.80;79.10;;;;;;5094819;28;20028;-12
2022/10/15 04:41:05;;;;;;;25.27;16.10;;;12.80;79.10;;;;;;5094530;28;20020;-12
2022/10/15 04:43:33;;;;;;;29.90;18.08;;;12.90;79.10;;;;;;5094659;28;20028;-12
2022/10/15 04:46:00;;;;;;;33.92;18.55;;;12.90;79.10;;;;;;5094643;28;20024;-13
2022/10/15 04:48:32;;;;;;;28.40;15.73;;;12.90;79.40;;;;;;5094818;28;20039;-12
2022/10/15 04:51:10;;;;;;;27.70;16.17;;;12.80;79.20;;;;;;5094221;28;20141;-12
2022/10/15 04:53:36;;;;;;;25.85;16.27;;;12.80;79.20;;;;;;5095341;28;20051;-13
2022/10/15 04:56:05;;;;;;;25.83;16.40;;;12.90;79.10;;;;;;5095284;28;20067;-12
2022/10/15 04:58:33;;;;;;;22.00;12.98;;;12.90;79.20;;;;;;5094676;28;20058;-12
2022/10/15 05:01:04;;;;;;;26.17;16.95;;;12.80;79.10;;;;;;5094497;28;20021;-12
2022/10/15 05:03:32;;;;;;;25.20;15.23;;;12.90;79.30;;;;;;5094576;28;20028;-13
2022/10/15 05:06:01;;;;;;;24.73;14.82;;;12.90;79.10;;;;;;5094903;28;20103;-13
2022/10/15 05:08:32;;;;;;;27.25;16.45;;;12.90;79.00;;;;;;5094438;28;20426;-13
2022/10/15 05:11:02;;;;;;;26.67;16.05;;;12.90;79.10;;;;;;5093699;28;20052;-12
2022/10/15 05:13:34;;;;;;;31.58;17.75;;;12.90;78.80;;;;;;5094364;28;20069;-13
2022/10/15 05:16:17;;;;;;;25.05;15.13;;;12.90;78.90;;;;;;5094407;28;20044;-13
2022/10/15 05:18:46;;;;;;;27.00;16.98;;;12.90;78.90;;;;;;5094001;28;20020;-13
2022/10/15 05:21:13;;;;;;;25.60;15.65;;;12.90;78.90;;;;;;5093976;28;20031;-12
2022/10/15 05:23:40;;;;;;;32.63;18.65;;;12.90;79.00;;;;;;5093904;28;20035;-13
2022/10/15 05:26:17;;;;;;;38.75;20.67;;;12.90;78.80;;;;;;5094193;28;20020;-12
2022/10/15 05:28:43;;;;;;;28.80;17.75;;;12.90;78.90;;;;;;5094028;28;20024;-13
2022/10/15 05:31:12;;;;;;;28.80;16.60;;;12.90;79.20;;;;;;5093507;28;20223;-12
2022/10/15 05:33:39;;;;;;;23.67;13.93;;;12.90;79.10;;;;;;5093995;28;20065;-12
2022/10/15 05:36:17;;;;;;;30.52;15.82;;;12.90;79.00;;;;;;5093951;28;20140;-13
2022/10/15 05:39:04;;;;;;;24.42;15.77;;;12.90;78.90;;;;;;5094150;28;20023;-14
2022/10/15 05:41:30;;;;;;;28.00;14.73;;;12.90;79.10;;;;;;5093472;28;20028;-13
2022/10/15 05:43:57;;;;;;;33.70;17.85;;;12.90;78.80;;;;;;5094368;28;20021;-13
2022/10/15 05:46:24;;;;;;;35.83;19.70;;;12.90;78.90;;;;;;5093872;28;20028;-13
2022/10/15 05:48:56;;;;;;;43.13;23.75;;;13.00;79.00;;;;;;5093337;28;20028;-13
2022/10/15 05:51:24;;;;;;;35.58;19.88;;;12.90;78.90;;;;;;5093385;28;20119;-13
2022/10/15 05:53:55;;;;;;;27.02;16.77;;;12.90;79.10;;;;;;5093952;28;20031;-13
2022/10/15 05:56:22;;;;;;;38.50;21.77;;;12.90;79.10;;;;;;5093719;28;20032;-13
2022/10/15 05:58:47;;;;;;;29.77;17.05;;;12.90;79.20;;;;;;5093546;28;20105;-13
2022/10/15 06:01:14;;;;;;;32.92;17.10;;;12.80;79.20;;;;;;5092016;28;20475;-12
2022/10/15 06:03:41;;;;;;;27.80;17.08;;;12.80;79.20;;;;;;5093542;28;20027;-13
2022/10/15 06:06:24;;;;;;;31.90;17.88;;;12.90;79.20;;;;;;5093302;28;20039;-13
2022/10/15 06:08:51;;;;;;;42.40;23.30;;;12.80;79.20;;;;;;5093462;28;20038;-13
2022/10/15 06:11:18;;;;;;;36.03;21.27;;;12.80;79.30;;;;;;5093070;28;20051;-12
2022/10/15 06:13:46;;;;;;;38.05;21.48;;;12.80;79.30;;;;;;5093431;28;20038;-12
2022/10/15 06:16:14;;;;;;;36.63;20.88;;;12.80;79.50;;;;;;5093462;28;20031;-12
2022/10/15 06:18:40;;;;;;;37.17;18.75;;;12.80;79.40;;;;;;5093038;28;20036;-13
2022/10/15 06:21:08;;;;;;;36.47;19.42;;;12.90;79.60;;;;;;5093272;28;20024;-14
2022/10/15 06:23:35;;;;;;;37.85;18.75;;;12.90;79.50;;;;;;5093217;28;20024;-13
2022/10/15 06:26:03;;;;;;;32.03;18.42;;;13.00;79.70;;;;;;5093504;28;20025;-12
2022/10/15 06:28:29;;;;;;;34.70;20.77;;;13.00;79.30;;;;;;5093125;28;20028;-12
2022/10/15 06:30:58;;;;;;;34.65;20.50;;;13.10;79.40;;;;;;5092788;28;20028;-14
2022/10/15 06:33:24;;;;;;;29.55;17.23;;;13.20;79.20;;;;;;5092940;28;20035;-12
2022/10/15 06:35:50;;;;;;;35.00;19.58;;;13.30;78.90;;;;;;5093339;28;20047;-13
2022/10/15 06:38:16;;;;;;;32.92;18.63;;;13.40;78.70;;;;;;5093265;28;20422;-12
2022/10/15 06:40:42;;;;;;;34.10;20.08;;;13.50;78.50;;;;;;5093082;28;20501;-13
2022/10/15 06:43:10;;;;;;;30.88;17.45;;;13.60;78.40;;;;;;5093391;28;20036;-13
2022/10/15 06:45:38;;;;;;;27.35;16.30;;;13.70;78.20;;;;;;5093178;28;20103;-13
2022/10/15 06:48:05;;;;;;;29.45;16.50;;;13.80;78.10;;;;;;5092871;28;20046;-13
2022/10/15 06:50:35;;;;;;;28.42;17.63;;;13.90;78.00;;;;;;5092988;28;20146;-13
2022/10/15 06:53:01;;;;;;;36.45;21.95;;;14.10;77.80;;;;;;5093939;28;20055;-14
2022/10/15 06:55:27;;;;;;;43.72;26.13;;;14.20;77.80;;;;;;5097069;28;20020;-13
2022/10/15 06:57:55;;;;;;;34.30;20.15;;;14.30;77.50;;;;;;5096745;28;20027;-13
2022/10/15 07:00:23;;;;;;;32.13;20.02;;;14.40;77.40;;;;;;5096677;28;20054;-14
2022/10/15 07:02:49;;;;;;;33.53;19.33;;;14.40;77.10;;;;;;5096469;28;20028;-13
2022/10/15 07:05:16;;;;;;;34.38;19.52;;;14.50;77.20;;;;;;5096614;28;20020;-13
2022/10/15 07:07:43;;;;;;;27.70;17.38;;;14.60;77.10;;;;;;5097347;28;20020;-12
2022/10/15 07:10:09;;;;;;;33.15;19.50;;;14.70;77.10;;;;;;5096161;28;20032;-14
2022/10/15 07:12:35;;;;;;;26.40;17.60;;;14.90;77.20;;;;;;5096832;28;20028;-14
2022/10/15 07:15:01;;;;;;;30.98;19.55;;;14.90;76.90;;;;;;5096439;28;20059;-13
2022/10/15 07:17:29;;;;;;;39.45;23.83;;;15.20;76.70;;;;;;5096721;28;20552;-12
2022/10/15 07:19:55;;;;;;;39.83;21.92;;;15.40;76.30;;;;;;5096573;28;20035;-13
2022/10/15 07:22:21;;;;;;;31.08;17.98;;;15.70;75.90;;;;;;5096247;28;20020;-14
2022/10/15 07:24:47;;;;;;;30.63;18.52;;;15.90;75.60;;;;;;5096339;28;20073;-13
2022/10/15 07:27:13;;;;;;;37.13;22.20;;;16.20;75.30;;;;;;5094959;28;20020;-13
2022/10/15 07:29:39;;;;;;;35.97;21.95;;;16.40;74.80;;;;;;5096014;28;20096;-13
2022/10/15 07:32:05;;;;;;;30.90;18.98;;;16.80;74.10;;;;;;5096373;28;20036;-13
2022/10/15 07:34:31;;;;;;;28.27;17.40;;;16.90;73.90;;;;;;5095971;28;20024;-12
2022/10/15 07:36:57;;;;;;;27.83;18.30;;;17.20;73.30;;;;;;5095882;28;20020;-13
2022/10/15 07:39:23;;;;;;;34.03;19.08;;;17.50;73.00;;;;;;5096381;28;20060;-13
2022/10/15 07:41:49;;;;;;;37.70;22.13;;;17.70;72.90;;;;;;5095865;28;20030;-13
2022/10/15 07:44:14;;;;;;;35.00;21.77;;;17.90;72.60;;;;;;5096211;28;20028;-13
2022/10/15 07:46:40;;;;;;;29.50;18.90;;;18.20;71.80;;;;;;5096902;28;20039;-10
2022/10/15 07:49:08;;;;;;;33.60;20.75;;;18.40;71.00;;;;;;5095459;28;20487;-12
2022/10/15 07:51:34;;;;;;;32.95;20.27;;;18.50;70.40;;;;;;5094460;28;20524;-11
2022/10/15 07:54:00;;;;;;;32.60;20.95;;;18.70;70.30;;;;;;5095981;28;20028;-12
2022/10/15 07:56:26;;;;;;;32.90;20.52;;;18.80;70.10;;;;;;5095715;28;20395;-12
2022/10/15 07:58:52;;;;;;;34.22;23.25;;;18.80;69.10;;;;;;5095344;28;20024;-12
2022/10/15 08:01:20;;;;;;;36.72;22.13;;;18.70;68.50;;;;;;5077556;28;20031;-11
2022/10/15 08:03:47;;;;;;;33.45;20.65;;;18.70;68.50;;;;;;5095072;28;20479;-12
2022/10/15 08:06:13;;;;;;;35.25;22.13;;;18.70;68.70;;;;;;5095578;28;20024;-11
2022/10/15 08:08:39;;;;;;;30.23;20.73;;;18.80;68.60;;;;;;5095381;28;20050;-11
2022/10/15 08:11:11;;;;;;;27.73;18.77;;;18.80;68.00;;;;;;5095049;28;20036;-11
2022/10/15 08:13:40;;;;;;;29.42;19.23;;;18.90;68.20;;;;;;5095588;28;20024;-11
2022/10/15 08:16:07;;;;;;;30.52;18.25;;;19.00;68.00;;;;;;5095271;28;20514;-11
2022/10/15 08:18:34;;;;;;;26.92;18.33;;;19.20;68.10;;;;;;5095106;28;20515;-12
2022/10/15 08:21:01;;;;;;;29.70;18.75;;;19.40;67.70;;;;;;5094973;28;20112;-12
2022/10/15 08:23:27;;;;;;;31.83;20.15;;;19.60;67.00;;;;;;5095004;28;20031;-12
2022/10/15 08:25:53;;;;;;;28.63;17.85;;;19.70;66.20;;;;;;5095046;28;20483;-12
2022/10/15 08:28:19;;;;;;;27.70;18.95;;;19.90;65.50;;;;;;5095333;28;20022;-11
2022/10/15 08:30:45;;;;;;;38.45;24.48;;;19.90;65.40;;;;;;5095173;28;20480;-12
2022/10/15 08:33:11;;;;;;;30.17;20.15;;;20.00;65.10;;;;;;5095081;28;20039;-12
2022/10/15 08:35:40;;;;;;;32.55;21.92;;;20.20;64.40;;;;;;5095148;28;20035;-13
2022/10/15 08:38:06;;;;;;;32.45;20.38;;;20.30;64.10;;;;;;5094830;28;20028;-12
2022/10/15 08:40:32;;;;;;;30.08;20.80;;;20.40;64.00;;;;;;5095079;28;20020;-12
2022/10/15 08:42:58;;;;;;;30.77;19.90;;;20.60;63.50;;;;;;5094802;28;20418;-12
2022/10/15 08:45:43;;;;;;;30.65;20.60;;;20.80;63.30;;;;;;5094685;28;20085;-12
2022/10/15 08:48:14;;;;;;;31.73;21.05;;;20.90;62.80;;;;;;5094863;28;20028;-12
2022/10/15 08:50:52;;;;;;;31.70;21.02;;;21.10;61.80;;;;;;5094822;28;20032;-11
2022/10/15 08:53:21;;;;;;;30.85;20.75;;;21.30;61.30;;;;;;5094588;28;20498;-11
2022/10/15 08:55:55;;;;;;;34.08;21.10;;;21.40;61.00;;;;;;5094856;28;20426;-12
2022/10/15 08:58:44;;;;;;;31.42;21.08;;;21.60;60.50;;;;;;5094821;28;20024;-12
2022/10/15 09:01:46;;;;;;;28.88;20.63;;;21.70;59.70;;;;;;5094255;28;20476;-12
2022/10/15 09:04:22;;;;;;;30.77;20.98;;;21.90;59.50;;;;;;5080058;28;20030;-12
2022/10/15 09:06:54;;;;;;;31.17;20.98;;;22.00;59.30;;;;;;5094417;28;20158;-13
2022/10/15 09:09:29;;;;;;;29.77;21.33;;;22.20;58.80;;;;;;5094274;28;20051;-11
2022/10/15 09:12:08;;;;;;;29.20;21.00;;;22.30;58.40;;;;;;5093859;28;20048;-11
2022/10/15 09:14:39;;;;;;;29.20;21.13;;;22.40;57.90;;;;;;5094101;28;20484;-11
2022/10/15 09:17:20;;;;;;;32.08;21.27;;;22.60;57.70;;;;;;5093188;28;20024;-11
2022/10/15 09:19:51;;;;;;;34.17;24.13;;;22.90;56.80;;;;;;5094345;28;20137;-13
2022/10/15 09:22:22;;;;;;;32.83;23.77;;;23.20;54.10;;;;;;5094879;28;20028;-11
2022/10/15 09:24:48;;;;;;;35.78;25.48;;;23.50;53.30;;;;;;5094199;28;20028;-11
2022/10/15 09:27:40;;;;;;;38.08;25.33;;;23.70;53.00;;;;;;5094092;28;20047;-11
2022/10/15 09:30:34;;;;;;;35.50;24.63;;;23.90;51.10;;;;;;5090777;28;20032;-11
2022/10/15 09:33:02;;;;;;;35.33;25.10;;;24.20;51.20;;;;;;5093636;28;20093;-12
2022/10/15 09:35:39;;;;;;;36.67;26.45;;;24.20;51.20;;;;;;5094004;28;20028;-12
2022/10/15 09:38:43;;;;;;;39.75;27.58;;;24.30;51.00;;;;;;5093751;28;20024;-11
2022/10/15 09:41:21;;;;;;;37.97;27.70;;;24.40;49.30;;;;;;5030994;28;20041;-11
2022/10/15 09:43:50;;;;;;;35.90;24.65;;;24.60;51.20;;;;;;5031768;28;20037;-11
2022/10/15 09:46:16;;;;;;;36.58;25.23;;;24.80;51.40;;;;;;5031558;28;20048;-11
2022/10/15 09:49:27;;;;;;;38.38;27.58;;;25.00;50.90;;;;;;5031270;28;20030;-12
2022/10/15 09:52:08;;;;;;;36.50;25.00;;;25.20;48.20;;;;;;5029750;28;20124;-11
2022/10/15 09:54:59;;;;;;;32.67;24.50;;;25.40;50.50;;;;;;5031295;28;20116;-11
2022/10/15 09:57:26;;;;;;;37.05;25.27;;;25.50;49.60;;;;;;5031276;28;20091;-13
2022/10/15 10:00:00;;;;;;;32.50;23.48;;;25.70;49.50;;;;;;5031409;28;20048;-12
2022/10/15 10:02:28;;;;;;;30.25;23.48;;;25.90;49.50;;;;;;5031227;28;20064;-12
2022/10/15 10:04:54;;;;;;;37.03;26.63;;;26.10;48.90;;;;;;5030900;28;20127;-11
2022/10/15 10:07:33;;;;;;;34.92;26.92;;;26.30;48.80;;;;;;5031204;28;20387;-11
2022/10/15 10:10:09;;;;;;;33.92;25.90;;;26.40;46.20;;;;;;5030887;28;20059;-12
2022/10/15 10:12:36;;;;;;;33.45;25.27;;;26.40;47.30;;;;;;5014367;28;20104;-11
2022/10/15 10:15:20;;;;;;;33.75;26.30;;;26.40;48.10;;;;;;5030725;28;20034;-11
2022/10/15 10:17:55;;;;;;;36.85;27.75;;;26.50;47.20;;;;;;5050001;28;20050;-11
2022/10/15 10:20:24;;;;;;;34.08;24.60;;;26.70;45.10;;;;;;5093333;28;20024;-11
2022/10/15 10:22:56;;;;;;;33.47;24.98;;;26.90;46.30;;;;;;5092932;28;20110;-12
2022/10/15 10:25:41;;;;;;;33.55;24.67;;;27.10;45.20;;;;;;5093276;28;20031;-11
2022/10/15 10:28:12;;;;;;;33.45;25.25;;;27.40;44.80;;;;;;5096413;28;20028;-12
2022/10/15 10:30:52;;;;;;;39.75;29.42;;;27.70;44.60;;;;;;5097215;28;20044;-12
2022/10/15 10:33:31;;;;;;;32.67;24.55;;;27.90;44.00;;;;;;5097199;28;20020;-11
2022/10/15 10:35:59;;;;;;;32.00;24.17;;;27.50;44.60;;;;;;5097249;28;20399;-12
2022/10/15 10:38:40;;;;;;;32.35;23.85;;;27.50;45.30;;;;;;5097441;28;20039;-11
2022/10/15 10:41:09;;;;;;;35.83;26.25;;;27.40;45.20;;;;;;5097182;28;20034;-11
2022/10/15 10:43:38;;;;;;;33.10;25.00;;;27.60;43.80;;;;;;5097034;28;20032;-12
2022/10/15 10:46:11;;;;;;;31.48;24.75;;;27.50;44.20;;;;;;5096993;28;20032;-11
2022/10/15 10:48:39;;;;;;;;;;;27.40;45.40;;;;;;5097339;28;20107;-11
2022/10/15 10:51:15;;;;;;;36.05;24.35;;;27.50;43.40;;;;;;5096953;28;19951;-11
2022/10/15 10:54:05;;;;;;;35.67;27.08;;;27.80;45.70;;;;;;5097172;28;20391;-11
2022/10/15 10:56:43;;;;;;;37.53;28.17;;;28.20;43.60;;;;;;5096889;28;20032;-11
2022/10/15 10:59:38;;;;;;;32.55;24.88;;;28.40;43.00;;;;;;5096841;28;20058;-12
2022/10/15 11:02:11;;;;;;;33.78;25.95;;;28.50;43.50;;;;;;5088477;28;20056;-12
2022/10/15 11:04:39;;;;;;;34.55;24.88;;;28.70;43.70;;;;;;5096540;28;20103;-12
2022/10/15 11:07:33;;;;;;;33.58;25.60;;;28.90;43.50;;;;;;5096534;28;20024;-11
2022/10/15 11:10:27;;;;;;;37.85;29.15;;;29.20;41.80;;;;;;5096713;28;20035;-11
2022/10/15 11:13:11;;;;;;;36.17;27.52;;;29.40;41.70;;;;;;5096583;28;20036;-13
2022/10/15 11:15:43;;;;;;;36.92;27.48;;;29.60;41.40;;;;;;5096486;28;20028;-11
2022/10/15 11:18:24;;;;;;;36.28;28.27;;;29.30;41.00;;;;;;5096632;28;20035;-11
2022/10/15 11:21:04;;;;;;;41.45;31.20;;;29.30;41.60;;;;;;5096525;28;20024;-12
2022/10/15 11:24:03;;;;;;;34.35;25.42;;;29.40;41.50;;;;;;5096625;28;20028;-11
2022/10/15 11:26:38;;;;;;;40.40;28.67;;;29.70;40.80;;;;;;5096589;28;20020;-11
2022/10/15 11:29:59;;;;;;;35.28;27.30;;;30.00;39.30;;;;;;5096284;28;20028;-11
2022/10/15 11:32:44;;;;;;;35.78;28.05;;;30.20;39.10;;;;;;5033746;28;20079;-13
2022/10/15 11:35:35;;;;;;;41.60;29.98;;;30.40;38.60;;;;;;5033595;28;20468;-11
2022/10/15 11:38:13;;;;;;;33.42;26.52;;;30.50;38.90;;;;;;5033667;28;20033;-11
2022/10/15 11:40:53;;;;;;;35.30;25.50;;;30.70;39.10;;;;;;5033496;28;20476;-11
2022/10/15 11:43:37;;;;;;;32.35;26.27;;;30.90;39.00;;;;;;5034121;28;20176;-12
2022/10/15 11:46:36;;;;;;;35.13;26.48;;;31.00;38.60;;;;;;5033665;28;20037;-11
2022/10/15 11:49:28;;;;;;;45.30;35.38;;;31.30;37.80;;;;;;5033332;28;20026;-12
2022/10/15 11:52:21;;;;;;;41.43;30.43;;;31.40;37.10;;;;;;5033512;28;20034;-12
2022/10/15 11:55:05;;;;;;;35.25;27.00;;;30.90;38.10;;;;;;5018270;28;20156;-12
2022/10/15 11:57:33;;;;;;;33.85;26.63;;;30.40;39.40;;;;;;5034284;28;20029;-12
2022/10/15 12:00:19;;;;;;;48.88;33.63;;;30.00;40.50;;;;;;5033341;28;20050;-11
2022/10/15 12:02:47;;;;;;;45.53;33.95;;;29.80;38.90;;;;;;5033007;28;20533;-11
2022/10/15 12:05:20;;;;;;;41.42;31.17;;;29.40;40.40;;;;;;5034301;28;20033;-11
2022/10/15 12:07:48;;;;;;;37.22;26.35;;;29.10;41.20;;;;;;5095485;28;20391;-12
2022/10/15 12:10:29;;;;;;;30.33;25.40;;;28.90;41.70;;;;;;5095378;28;20070;-11
2022/10/15 12:13:05;;;;;;;44.28;29.58;;;28.80;42.00;;;;;;5095537;28;20063;-12
2022/10/15 12:16:02;;;;;;;37.60;27.92;;;28.80;41.60;;;;;;5095372;28;20041;-12
2022/10/15 12:18:47;;;;;;;39.03;28.17;;;28.90;41.50;;;;;;5032915;28;20121;-12
2022/10/15 12:21:36;;;;;;;37.60;27.20;;;29.10;41.00;;;;;;5033529;28;20455;-12
2022/10/15 12:24:09;;;;;;;38.97;27.55;;;29.20;41.20;;;;;;5027787;28;20539;-12
2022/10/15 12:26:36;;;;;;;41.28;28.25;;;29.60;40.70;;;;;;5033012;28;20040;-12
2022/10/15 12:29:17;;;;;;;45.92;29.35;;;29.90;39.70;;;;;;5032649;28;20401;-12
2022/10/15 12:31:50;;;;;;;40.70;27.73;;;30.10;39.10;;;;;;5032995;28;20477;-12
2022/10/15 12:34:29;;;;;;;36.80;26.25;;;30.30;38.50;;;;;;5016356;28;20497;-12
2022/10/15 12:37:01;;;;;;;39.38;29.10;;;30.40;39.00;;;;;;5032436;28;20509;-12
2022/10/15 12:39:28;;;;;;;33.00;25.17;;;30.60;38.20;;;;;;5032713;28;20124;-12
2022/10/15 12:41:54;;;;;;;39.03;29.02;;;30.70;38.40;;;;;;5032858;28;20040;-12
2022/10/15 12:44:26;;;;;;;45.53;33.38;;;30.90;37.80;;;;;;5032462;28;20413;-11
2022/10/15 12:46:52;;;;;;;36.30;27.00;;;30.80;37.40;;;;;;5032332;28;20032;-11
2022/10/15 12:49:31;;;;;;;40.13;28.70;;;30.50;38.10;;;;;;5032434;28;20476;-11
2022/10/15 12:52:01;;;;;;;49.22;36.13;;;30.40;38.50;;;;;;5031630;28;20030;-12
2022/10/15 12:54:40;;;;;;;51.28;36.67;;;30.30;38.90;;;;;;5042983;28;20048;-12